createdAt,value
2019-05-05T00:01:49.400Z,55.75
2019-05-05T00:04:39.903Z,57.15
2019-05-05T00:07:14.886Z,58.36
2019-05-05T00:09:47.810Z,59.67
2019-05-05T00:12:38.126Z,60.69
2019-05-05T00:15:29.105Z,61.42
2019-05-05T00:18:02.380Z,62.62
2019-05-05T00:20:35.245Z,67.58
2019-05-05T00:23:07.981Z,62.48
2019-05-05T00:25:40.855Z,57.38
2019-05-05T00:28:14.418Z,52.47
2019-05-05T00:30:47.431Z,52.87
2019-05-05T00:33:20.015Z,54.16
2019-05-05T00:35:54.496Z,55.36
2019-05-05T00:38:28.380Z,56.62
2019-05-05T00:41:00.995Z,57.93
2019-05-05T00:43:34.499Z,58.95
2019-05-05T00:46:08.879Z,60.07
2019-05-05T00:48:44.452Z,61.11
2019-05-05T00:51:17.421Z,61.23
2019-05-05T00:53:50.319Z,62.59
2019-05-05T00:56:24.907Z,67.18
2019-05-05T00:58:58.996Z,63.22
2019-05-05T01:01:34.284Z,58.06
2019-05-05T01:04:07.536Z,52.99
2019-05-05T01:06:40.356Z,53.76
2019-05-05T01:09:14.918Z,54.69
2019-05-05T01:11:49.580Z,55.34
2019-05-05T01:14:22.350Z,56.60
2019-05-05T01:16:55.130Z,57.67
2019-05-05T01:19:27.950Z,58.52
2019-05-05T01:22:00.561Z,59.37
2019-05-05T01:24:34.401Z,60.74
2019-05-05T01:27:07.110Z,61.47
2019-05-05T01:29:39.795Z,62.89
2019-05-05T01:32:15.230Z,67.93
2019-05-05T01:34:48.305Z,62.82
2019-05-05T01:37:22.792Z,57.41
2019-05-05T01:39:55.165Z,54.02
2019-05-05T01:42:27.692Z,53.83
2019-05-05T01:45:01.951Z,54.38
2019-05-05T01:47:34.809Z,55.40
2019-05-05T01:50:18.296Z,56.48
2019-05-05T01:52:44.998Z,57.35
2019-05-05T01:55:17.472Z,57.93
2019-05-05T01:57:50.410Z,58.99
2019-05-05T02:00:25.236Z,60.10
2019-05-05T02:02:57.515Z,60.75
2019-05-05T02:05:30.155Z,61.69
2019-05-05T02:08:04.889Z,63.24
2019-05-05T02:10:37.445Z,69.04
2019-05-05T02:13:10.390Z,64.94
2019-05-05T02:15:44.568Z,58.30
2019-05-05T02:18:18.458Z,53.37
2019-05-05T02:21:06.385Z,53.80
2019-05-05T02:23:39.218Z,55.11
2019-05-05T02:26:11.981Z,56.37
2019-05-05T02:28:54.125Z,57.87
2019-05-05T02:31:45.419Z,58.52
2019-05-05T02:34:18.331Z,59.43
2019-05-05T02:36:51.041Z,60.44
2019-05-05T02:39:23.993Z,61.01
2019-05-05T02:41:58.072Z,62.12
2019-05-05T02:44:34.736Z,68.27
2019-05-05T02:47:10.615Z,63.47
2019-05-05T02:49:45.843Z,57.56
2019-05-05T02:52:19.608Z,52.46
2019-05-05T02:54:53.726Z,53.49
2019-05-05T02:57:26.599Z,54.00
2019-05-05T03:00:00.782Z,54.90
2019-05-05T03:02:35.354Z,56.13
2019-05-05T03:05:10.390Z,57.22
2019-05-05T03:07:43.733Z,58.34
2019-05-05T03:10:17.077Z,58.99
2019-05-05T03:12:49.735Z,60.25
2019-05-05T03:15:33.669Z,62.09
2019-05-05T03:18:06.330Z,67.27
2019-05-05T03:20:38.930Z,62.04
2019-05-05T03:23:13.592Z,57.12
2019-05-05T03:25:46.445Z,52.58
2019-05-05T03:28:19.365Z,52.71
2019-05-05T03:30:55.788Z,53.59
2019-05-05T03:33:27.586Z,54.62
2019-05-05T03:36:00.263Z,55.78
2019-05-05T03:38:33.770Z,56.68
2019-05-05T03:41:08.460Z,57.77
2019-05-05T03:43:59.249Z,59.32
2019-05-05T03:46:34.584Z,59.28
2019-05-05T03:49:08.039Z,60.75
2019-05-05T03:51:40.785Z,62.02
2019-05-05T03:54:14.608Z,68.39
2019-05-05T03:56:48.065Z,62.59
2019-05-05T03:59:20.915Z,56.89
2019-05-05T04:01:56.105Z,51.72
2019-05-05T04:04:30.314Z,51.93
2019-05-05T04:07:04.756Z,52.83
2019-05-05T04:09:37.516Z,54.16
2019-05-05T04:12:10.220Z,55.31
2019-05-05T04:14:44.620Z,55.73
2019-05-05T04:17:18.680Z,56.71
2019-05-05T04:19:54.218Z,57.19
2019-05-05T04:22:26.961Z,58.39
2019-05-05T04:24:59.675Z,59.78
2019-05-05T04:27:34.240Z,60.84
2019-05-05T04:30:07.948Z,62.53
2019-05-05T04:32:40.525Z,66.50
2019-05-05T04:35:14.048Z,62.23
2019-05-05T04:37:46.916Z,57.30
2019-05-05T04:40:19.561Z,53.62
2019-05-05T04:42:54.447Z,51.28
2019-05-05T04:45:26.365Z,51.78
2019-05-05T04:48:00.490Z,53.17
2019-05-05T04:50:43.931Z,53.65
2019-05-05T04:53:17.930Z,54.57
2019-05-05T04:55:53.574Z,55.46
2019-05-05T04:58:26.276Z,55.63
2019-05-05T05:00:58.895Z,56.40
2019-05-05T05:03:39.086Z,57.15
2019-05-05T05:06:14.672Z,56.97
2019-05-05T05:08:47.616Z,55.04
2019-05-05T05:11:20.326Z,55.89
2019-05-05T05:13:54.393Z,55.02
2019-05-05T05:16:27.201Z,53.43
2019-05-05T05:18:59.790Z,51.27
2019-05-05T05:21:34.129Z,50.77
2019-05-05T05:24:06.597Z,48.70
2019-05-05T05:26:40.270Z,48.44
2019-05-05T05:29:14.979Z,48.80
2019-05-05T05:31:47.659Z,46.71
2019-05-05T05:34:20.450Z,48.18
2019-05-05T05:36:53.698Z,48.00
2019-05-05T05:39:40.203Z,47.84
2019-05-05T05:42:13.718Z,47.17
2019-05-05T05:44:47.900Z,46.30
2019-05-05T05:47:34.565Z,48.88
2019-05-05T05:50:10.435Z,48.40
2019-05-05T05:52:44.432Z,47.75
2019-05-05T05:55:16.930Z,49.53
2019-05-05T05:57:50.075Z,51.23
2019-05-05T06:00:23.768Z,48.92
2019-05-05T06:02:56.695Z,51.40
2019-05-05T06:05:29.170Z,52.43
2019-05-05T06:08:01.813Z,52.96
2019-05-05T06:10:34.306Z,52.64
2019-05-05T06:13:07.225Z,53.69
2019-05-05T06:15:39.795Z,53.48
2019-05-05T06:18:13.830Z,54.33
2019-05-05T06:20:46.855Z,54.78
2019-05-05T06:23:19.526Z,54.94
2019-05-05T06:25:52.075Z,55.03
2019-05-05T06:28:24.823Z,55.07
2019-05-05T06:30:57.451Z,56.70
2019-05-05T06:33:30.042Z,56.29
2019-05-05T06:36:03.757Z,56.98
2019-05-05T06:38:36.751Z,56.95
2019-05-05T06:41:27.263Z,56.66
2019-05-05T06:44:07.461Z,57.43
2019-05-05T06:46:59.040Z,57.97
2019-05-05T06:49:31.936Z,58.14
2019-05-05T06:52:04.620Z,58.25
2019-05-05T06:54:37.775Z,58.35
2019-05-05T06:57:10.344Z,58.26
2019-05-05T06:59:43.879Z,58.55
2019-05-05T07:02:16.780Z,58.86
2019-05-05T07:04:49.278Z,59.48
2019-05-05T07:07:23.621Z,60.01
2019-05-05T07:09:56.670Z,59.98
2019-05-05T07:12:29.824Z,58.84
2019-05-05T07:15:04.238Z,58.70
2019-05-05T07:17:36.535Z,58.44
2019-05-05T07:20:09.509Z,59.32
2019-05-05T07:22:55.719Z,58.85
2019-05-05T07:25:16.310Z,58.92
2019-05-05T07:27:48.900Z,58.86
2019-05-05T07:30:21.486Z,59.17
2019-05-05T07:32:55.291Z,59.26
2019-05-05T07:35:35.822Z,59.11
2019-05-05T07:38:08.481Z,58.72
2019-05-05T07:40:41.060Z,58.69
2019-05-05T07:43:14.637Z,58.80
2019-05-05T07:45:47.586Z,59.10
2019-05-05T07:48:20.771Z,59.06
2019-05-05T07:51:01.953Z,59.01
2019-05-05T07:53:28.140Z,59.20
2019-05-05T07:56:00.852Z,59.11
2019-05-05T07:58:34.507Z,58.84
2019-05-05T08:01:07.425Z,58.41
2019-05-05T08:03:40.027Z,58.08
2019-05-05T08:06:14.550Z,57.76
2019-05-05T08:08:47.330Z,58.52
2019-05-05T08:11:19.875Z,57.94
2019-05-05T08:13:54.738Z,57.90
2019-05-05T08:16:33.734Z,57.87
2019-05-05T08:19:13.861Z,58.02
2019-05-05T08:21:46.715Z,56.68
2019-05-05T08:24:21.095Z,56.66
2019-05-05T08:26:55.613Z,55.76
2019-05-05T08:29:34.543Z,54.63
2019-05-05T08:32:13.571Z,54.51
2019-05-05T08:34:57.440Z,53.85
2019-05-05T08:37:20.336Z,53.30
2019-05-05T08:39:54.011Z,54.93
2019-05-05T08:42:26.990Z,55.21
2019-05-05T08:44:59.500Z,53.96
2019-05-05T08:47:34.435Z,53.99
2019-05-05T08:50:08.032Z,52.32
2019-05-05T08:52:40.731Z,52.43
2019-05-05T08:55:14.021Z,53.69
2019-05-05T08:57:47.990Z,53.16
2019-05-05T09:00:21.755Z,53.45
2019-05-05T09:02:54.915Z,52.62
2019-05-05T09:05:27.560Z,51.94
2019-05-05T09:08:00.519Z,51.59
2019-05-05T09:10:34.318Z,53.08
2019-05-05T09:13:07.675Z,51.91
2019-05-05T09:15:44.110Z,52.28
2019-05-05T09:18:17.575Z,51.42
2019-05-05T09:20:50.350Z,49.86
2019-05-05T09:23:23.996Z,48.69
2019-05-05T09:26:04.411Z,50.79
2019-05-05T09:28:38.746Z,50.95
2019-05-05T09:31:11.494Z,47.35
2019-05-05T09:33:44.216Z,48.35
2019-05-05T09:36:17.155Z,48.55
2019-05-05T09:38:50.165Z,47.87
2019-05-05T09:41:23.537Z,48.77
2019-05-05T09:43:56.737Z,47.00
2019-05-05T09:46:29.416Z,47.78
2019-05-05T09:49:01.901Z,47.35
2019-05-05T09:51:34.854Z,49.04
2019-05-05T09:54:13.895Z,47.11
2019-05-05T09:56:44.327Z,49.02
2019-05-05T09:59:16.789Z,47.15
2019-05-05T10:01:50.290Z,46.06
2019-05-05T10:04:24.339Z,47.15
2019-05-05T10:06:57.307Z,47.82
2019-05-05T10:09:29.760Z,46.52
2019-05-05T10:12:04.515Z,45.86
2019-05-05T10:14:36.914Z,45.32
2019-05-05T10:17:09.870Z,45.84
2019-05-05T10:19:44.027Z,44.47
2019-05-05T10:22:16.898Z,45.08
2019-05-05T10:24:54.240Z,44.96
2019-05-05T10:27:25.806Z,45.76
2019-05-05T10:29:58.701Z,45.31
2019-05-05T10:32:31.590Z,44.33
2019-05-05T10:35:04.948Z,46.16
2019-05-05T10:37:38.180Z,44.46
2019-05-05T10:40:12.820Z,45.06
2019-05-05T10:42:53.984Z,43.34
2019-05-05T10:45:26.560Z,44.53
2019-05-05T10:48:00.545Z,43.67
2019-05-05T10:50:34.205Z,43.34
2019-05-05T10:53:07.211Z,42.95
2019-05-05T10:55:39.825Z,42.00
2019-05-05T10:58:13.824Z,42.11
2019-05-05T11:00:50.150Z,43.33
2019-05-05T11:03:23.696Z,41.93
2019-05-05T11:05:56.798Z,42.54
2019-05-05T11:08:30.833Z,43.19
2019-05-05T11:11:04.404Z,43.26
2019-05-05T11:13:37.287Z,42.57
2019-05-05T11:16:09.980Z,43.01
2019-05-05T11:18:43.094Z,41.66
2019-05-05T11:21:15.935Z,42.46
2019-05-05T11:23:48.605Z,41.57
2019-05-05T11:26:21.460Z,40.51
2019-05-05T11:28:54.436Z,41.70
2019-05-05T11:31:27.268Z,42.00
2019-05-05T11:34:04.905Z,41.56
2019-05-05T11:36:48.195Z,40.80
2019-05-05T11:39:23.438Z,41.63
2019-05-05T11:41:55.738Z,40.34
2019-05-05T11:44:28.641Z,41.29
2019-05-05T11:47:03.545Z,39.55
2019-05-05T11:49:35.900Z,41.22
2019-05-05T11:52:08.572Z,41.83
2019-05-05T11:54:41.545Z,40.74
2019-05-05T11:57:14.159Z,38.30
2019-05-05T11:59:46.895Z,39.78
2019-05-05T12:02:19.760Z,37.52
2019-05-05T12:04:54.078Z,39.14
2019-05-05T12:07:26.685Z,40.43
2019-05-05T12:09:59.714Z,38.84
2019-05-05T12:12:33.682Z,37.73
2019-05-05T12:15:08.850Z,38.02
2019-05-05T12:17:41.505Z,38.02
2019-05-05T12:20:17.375Z,39.57
2019-05-05T12:22:50.100Z,38.49
2019-05-05T12:25:44.120Z,37.58
2019-05-05T12:28:34.648Z,35.59
2019-05-05T12:31:14.017Z,38.36
2019-05-05T12:33:46.319Z,37.24
2019-05-05T12:36:19.180Z,36.35
2019-05-05T12:38:54.392Z,37.26
2019-05-05T12:41:26.515Z,36.20
2019-05-05T12:43:59.176Z,38.85
2019-05-05T12:46:36.155Z,36.88
2019-05-05T12:49:10.815Z,35.75
2019-05-05T12:51:44.007Z,37.13
2019-05-05T12:54:16.860Z,37.16
2019-05-05T12:56:50.095Z,36.47
2019-05-05T12:59:25.018Z,35.24
2019-05-05T13:01:57.840Z,36.93
2019-05-05T13:04:30.566Z,34.61
2019-05-05T13:07:04.988Z,36.48
2019-05-05T13:09:38.366Z,34.41
2019-05-05T13:12:11.315Z,34.95
2019-05-05T13:14:44.105Z,34.62
2019-05-05T13:17:16.990Z,35.57
2019-05-05T13:19:54.151Z,35.08
2019-05-05T13:22:41.587Z,36.50
2019-05-05T13:25:35.826Z,36.41
2019-05-05T13:28:08.960Z,35.56
2019-05-05T13:30:43.504Z,35.19
2019-05-05T13:33:16.995Z,35.99
2019-05-05T13:35:50.970Z,35.73
2019-05-05T13:38:24.051Z,35.00
2019-05-05T13:40:56.894Z,35.03
2019-05-05T13:43:29.516Z,34.80
2019-05-05T13:46:03.990Z,33.36
2019-05-05T13:48:36.685Z,35.10
2019-05-05T13:51:11.026Z,33.49
2019-05-05T13:53:44.880Z,35.20
2019-05-05T13:56:17.310Z,35.09
2019-05-05T13:58:51.425Z,35.69
2019-05-05T14:01:24.155Z,36.32
2019-05-05T14:03:57.800Z,35.53
2019-05-05T14:06:30.760Z,34.77
2019-05-05T14:09:04.775Z,35.49
2019-05-05T14:11:38.996Z,33.23
2019-05-05T14:14:13.647Z,34.92
2019-05-05T14:16:46.169Z,35.97
2019-05-05T14:19:18.940Z,34.24
2019-05-05T14:21:53.681Z,35.70
2019-05-05T14:24:28.200Z,33.93
2019-05-05T14:27:01.002Z,35.61
2019-05-05T14:29:47.610Z,33.90
2019-05-05T14:32:23.886Z,33.06
2019-05-05T14:35:00.430Z,33.45
2019-05-05T14:37:37.760Z,34.74
2019-05-05T14:40:11.137Z,33.65
2019-05-05T14:42:43.809Z,34.37
2019-05-05T14:45:17.481Z,34.81
2019-05-05T14:47:50.175Z,34.77
2019-05-05T14:50:24.236Z,34.62
2019-05-05T14:52:57.231Z,35.38
2019-05-05T14:55:29.632Z,34.54
2019-05-05T14:58:03.955Z,34.83
2019-05-05T15:00:39.379Z,34.41
2019-05-05T15:03:11.110Z,34.80
2019-05-05T15:05:45.465Z,34.18
2019-05-05T15:08:35.280Z,34.90
2019-05-05T15:11:09.655Z,34.79
2019-05-05T15:13:43.713Z,35.38
2019-05-05T15:16:16.910Z,35.18
2019-05-05T15:18:49.775Z,37.33
2019-05-05T15:21:23.607Z,35.65
2019-05-05T15:23:56.265Z,36.03
2019-05-05T15:26:28.845Z,36.05
2019-05-05T15:29:01.927Z,36.60
2019-05-05T15:31:34.722Z,37.60
2019-05-05T15:34:07.635Z,36.76
2019-05-05T15:36:40.810Z,37.24
2019-05-05T15:39:13.922Z,36.98
2019-05-05T15:41:46.660Z,37.53
2019-05-05T15:44:19.450Z,37.72
2019-05-05T15:46:54.926Z,37.26
2019-05-05T15:49:26.645Z,36.82
2019-05-05T15:51:59.836Z,37.39
2019-05-05T15:54:33.970Z,37.09
2019-05-05T15:57:09.606Z,37.38
2019-05-05T15:59:43.645Z,37.76
2019-05-05T16:02:16.673Z,36.94
2019-05-05T16:04:49.291Z,36.56
2019-05-05T16:07:24.125Z,36.71
2019-05-05T16:09:56.881Z,37.95
2019-05-05T16:12:34.189Z,36.70
2019-05-05T16:15:06.696Z,37.18
2019-05-05T16:17:41.004Z,37.16
2019-05-05T16:20:15.435Z,37.35
2019-05-05T16:22:49.820Z,38.50
2019-05-05T16:25:22.571Z,37.93
2019-05-05T16:27:55.316Z,38.09
2019-05-05T16:30:28.655Z,38.01
2019-05-05T16:33:01.000Z,39.72
2019-05-05T16:35:34.286Z,38.69
2019-05-05T16:38:07.035Z,38.38
2019-05-05T16:40:39.720Z,38.20
2019-05-05T16:43:16.254Z,39.29
2019-05-05T16:45:47.140Z,38.99
2019-05-05T16:48:19.896Z,38.47
2019-05-05T16:50:54.161Z,38.95
2019-05-05T16:53:37.349Z,39.33
2019-05-05T16:56:14.020Z,38.95
2019-05-05T16:58:47.050Z,38.59
2019-05-05T17:01:19.995Z,38.09
2019-05-05T17:03:54.244Z,37.89
2019-05-05T17:06:27.330Z,39.54
2019-05-05T17:08:59.951Z,37.97
2019-05-05T17:11:33.624Z,37.52
2019-05-05T17:14:10.700Z,36.78
2019-05-05T17:16:45.269Z,35.17
2019-05-05T17:19:22.015Z,36.17
2019-05-05T17:22:08.080Z,35.87
2019-05-05T17:24:40.801Z,36.62
2019-05-05T17:27:14.018Z,37.00
2019-05-05T17:29:46.731Z,37.87
2019-05-05T17:32:19.890Z,37.31
2019-05-05T17:34:54.119Z,37.73
2019-05-05T17:37:27.091Z,38.37
2019-05-05T17:40:01.550Z,38.19
2019-05-05T17:42:39.110Z,38.65
2019-05-05T17:45:14.228Z,37.06
2019-05-05T17:47:48.960Z,37.40
2019-05-05T17:50:23.870Z,38.40
2019-05-05T17:52:58.165Z,38.61
2019-05-05T17:55:35.249Z,39.10
2019-05-05T17:58:08.219Z,39.26
2019-05-05T18:00:43.889Z,37.71
2019-05-05T18:03:17.151Z,38.02
2019-05-05T18:06:05.903Z,38.02
2019-05-05T18:08:38.735Z,38.81
2019-05-05T18:11:25.278Z,39.56
2019-05-05T18:14:14.618Z,39.49
2019-05-05T18:16:47.475Z,39.16
2019-05-05T18:19:20.614Z,39.42
2019-05-05T18:21:54.735Z,39.41
2019-05-05T18:24:27.575Z,39.40
2019-05-05T18:27:00.550Z,40.69
2019-05-05T18:29:34.021Z,39.78
2019-05-05T18:32:06.806Z,41.61
2019-05-05T18:34:39.351Z,41.97
2019-05-05T18:37:11.900Z,42.66
2019-05-05T18:39:44.795Z,42.40
2019-05-05T18:42:18.896Z,42.86
2019-05-05T18:44:55.709Z,43.39
2019-05-05T18:47:28.430Z,43.25
2019-05-05T18:50:01.088Z,43.92
2019-05-05T18:52:34.682Z,43.99
2019-05-05T18:55:09.400Z,44.31
2019-05-05T18:57:43.470Z,44.76
2019-05-05T19:00:19.355Z,44.50
2019-05-05T19:02:53.746Z,45.29
2019-05-05T19:05:39.649Z,45.59
2019-05-05T19:08:26.250Z,45.89
2019-05-05T19:10:58.974Z,46.59
2019-05-05T19:13:33.933Z,45.77
2019-05-05T19:16:06.265Z,47.20
2019-05-05T19:18:39.080Z,47.34
2019-05-05T19:21:11.652Z,47.24
2019-05-05T19:23:44.813Z,47.41
2019-05-05T19:26:18.050Z,48.19
2019-05-05T19:28:51.115Z,47.95
2019-05-05T19:31:23.770Z,48.21
2019-05-05T19:33:56.370Z,48.48
2019-05-05T19:36:29.065Z,48.73
2019-05-05T19:39:04.118Z,48.89
2019-05-05T19:41:37.865Z,49.14
2019-05-05T19:44:10.390Z,49.45
2019-05-05T19:46:44.850Z,49.35
2019-05-05T19:49:20.824Z,49.45
2019-05-05T19:51:54.254Z,49.76
2019-05-05T19:54:26.973Z,50.15
2019-05-05T19:56:59.671Z,49.83
2019-05-05T19:59:33.846Z,49.99
2019-05-05T20:02:08.159Z,50.32
2019-05-05T20:04:40.730Z,50.49
2019-05-05T20:07:13.915Z,50.38
2019-05-05T20:09:46.820Z,50.08
2019-05-05T20:12:19.824Z,50.27
2019-05-05T20:14:54.432Z,50.33
2019-05-05T20:17:35.362Z,50.61
2019-05-05T20:20:09.771Z,51.07
2019-05-05T20:22:44.426Z,51.02
2019-05-05T20:25:17.514Z,51.34
2019-05-05T20:27:50.280Z,50.80
2019-05-05T20:30:24.713Z,51.35
2019-05-05T20:33:05.214Z,51.70
2019-05-05T20:35:45.935Z,51.47
2019-05-05T20:38:23.827Z,51.78
2019-05-05T20:40:58.120Z,51.92
2019-05-05T20:43:30.880Z,52.24
2019-05-05T20:46:04.488Z,52.18
2019-05-05T20:48:37.580Z,52.48
2019-05-05T20:51:10.175Z,51.73
2019-05-05T20:53:44.813Z,51.46
2019-05-05T20:56:17.210Z,51.92
2019-05-05T20:58:50.070Z,52.19
2019-05-05T21:01:24.648Z,52.54
2019-05-05T21:03:57.680Z,52.52
2019-05-05T21:06:30.571Z,53.18
2019-05-05T21:09:04.320Z,53.56
2019-05-05T21:11:37.469Z,53.97
2019-05-05T21:14:10.251Z,53.63
2019-05-05T21:16:44.066Z,54.17
2019-05-05T21:19:16.905Z,54.03
2019-05-05T21:21:51.115Z,54.43
2019-05-05T21:24:24.072Z,54.27
2019-05-05T21:26:58.281Z,55.37
2019-05-05T21:29:39.555Z,55.81
2019-05-05T21:32:05.357Z,56.22
2019-05-05T21:34:38.270Z,56.30
2019-05-05T21:37:11.010Z,55.85
2019-05-05T21:39:45.441Z,55.79
2019-05-05T21:42:19.365Z,55.54
2019-05-05T21:44:53.910Z,55.14
2019-05-05T21:47:26.354Z,54.86
2019-05-05T21:49:59.120Z,55.09
2019-05-05T21:52:34.603Z,54.74
2019-05-05T21:55:25.390Z,54.58
2019-05-05T21:58:09.745Z,54.22
2019-05-05T22:00:48.435Z,54.24
2019-05-05T22:03:23.682Z,53.67
2019-05-05T22:05:56.616Z,54.40
2019-05-05T22:08:29.500Z,54.69
2019-05-05T22:11:03.923Z,54.25
2019-05-05T22:13:37.086Z,54.51
2019-05-05T22:16:09.964Z,54.14
2019-05-05T22:18:44.661Z,56.06
2019-05-05T22:21:18.685Z,56.37
2019-05-05T22:24:12.844Z,58.01
2019-05-05T22:26:44.889Z,59.01
2019-05-05T22:29:17.815Z,59.51
2019-05-05T22:31:50.551Z,60.51
2019-05-05T22:34:24.103Z,59.37
2019-05-05T22:36:57.340Z,59.69
2019-05-05T22:39:30.174Z,60.45
2019-05-05T22:42:04.710Z,60.39
2019-05-05T22:44:37.249Z,61.33
2019-05-05T22:47:10.062Z,61.10
2019-05-05T22:49:44.394Z,61.04
2019-05-05T22:52:18.600Z,59.30
2019-05-05T22:54:51.434Z,59.45
2019-05-05T22:57:24.721Z,57.99
2019-05-05T22:59:57.349Z,58.12
2019-05-05T23:02:33.821Z,58.01
2019-05-05T23:05:14.665Z,58.34
2019-05-05T23:07:47.531Z,59.81
2019-05-05T23:10:20.259Z,60.27
2019-05-05T23:12:54.412Z,60.06
2019-05-05T23:15:27.225Z,60.00
2019-05-05T23:18:03.695Z,61.81
2019-05-05T23:21:08.384Z,60.26
2019-05-05T23:23:48.531Z,61.57
2019-05-05T23:26:25.652Z,60.74
2019-05-05T23:28:58.613Z,62.96
2019-05-05T23:31:33.434Z,65.76
2019-05-05T23:34:05.640Z,59.73
2019-05-05T23:36:38.397Z,52.24
2019-05-05T23:39:13.461Z,51.65
2019-05-05T23:41:45.724Z,51.68
2019-05-05T23:44:18.630Z,52.26
2019-05-05T23:46:51.241Z,52.90
2019-05-05T23:49:24.370Z,54.22
2019-05-05T23:51:57.075Z,55.12
2019-05-05T23:54:29.846Z,55.69
2019-05-05T23:57:04.648Z,56.72
2019-05-05T23:59:37.297Z,57.43
